sensor_id;sensor_type;location;lat;lon;timestamp;pressure;altitude;pressure_sealevel;temperature;humidity
21980;BME280;11154;48.558;9.234;2023-04-27T00:00:31;97584.97;;;13.21;67.56
21980;BME280;11154;48.558;9.234;2023-04-27T00:02:33;97592.31;;;13.19;67.74
21980;BME280;11154;48.558;9.234;2023-04-27T00:04:35;97598.19;;;13.14;67.00
21980;BME280;11154;48.558;9.234;2023-04-27T00:06:36;97590.34;;;13.13;66.80
21980;BME280;11154;48.558;9.234;2023-04-27T00:08:38;97592.72;;;13.08;66.85
21980;BME280;11154;48.558;9.234;2023-04-27T00:10:40;97590.06;;;13.08;66.07
21980;BME280;11154;48.558;9.234;2023-04-27T00:12:41;97590.38;;;13.05;67.03
21980;BME280;11154;48.558;9.234;2023-04-27T00:14:44;97579.72;;;13.05;67.14
21980;BME280;11154;48.558;9.234;2023-04-27T00:16:46;97584.41;;;13.03;67.80
21980;BME280;11154;48.558;9.234;2023-04-27T00:18:48;97580.06;;;13.02;67.93
21980;BME280;11154;48.558;9.234;2023-04-27T00:20:50;97582.91;;;13.00;68.40
21980;BME280;11154;48.558;9.234;2023-04-27T00:22:51;97580.78;;;12.96;69.08
21980;BME280;11154;48.558;9.234;2023-04-27T00:24:53;97583.94;;;12.99;69.51
21980;BME280;11154;48.558;9.234;2023-04-27T00:26:54;97582.41;;;12.97;68.74
21980;BME280;11154;48.558;9.234;2023-04-27T00:28:57;97580.06;;;13.02;68.31
21980;BME280;11154;48.558;9.234;2023-04-27T00:31:00;97585.03;;;13.05;69.13
21980;BME280;11154;48.558;9.234;2023-04-27T00:33:02;97581.19;;;13.07;68.96
21980;BME280;11154;48.558;9.234;2023-04-27T00:35:05;97588.00;;;13.10;68.34
21980;BME280;11154;48.558;9.234;2023-04-27T00:37:07;97582.53;;;13.11;67.57
21980;BME280;11154;48.558;9.234;2023-04-27T00:39:09;97579.00;;;13.11;66.88
21980;BME280;11154;48.558;9.234;2023-04-27T00:41:11;97579.84;;;13.11;67.72
21980;BME280;11154;48.558;9.234;2023-04-27T00:43:13;97579.84;;;13.11;68.74
21980;BME280;11154;48.558;9.234;2023-04-27T00:45:15;97579.00;;;13.11;67.86
21980;BME280;11154;48.558;9.234;2023-04-27T00:47:18;97583.53;;;13.10;67.63
21980;BME280;11154;48.558;9.234;2023-04-27T00:49:20;97575.84;;;13.07;66.91
21980;BME280;11154;48.558;9.234;2023-04-27T00:51:22;97569.69;;;13.07;67.44
21980;BME280;11154;48.558;9.234;2023-04-27T00:53:27;97574.75;;;13.02;66.67
21980;BME280;11154;48.558;9.234;2023-04-27T00:55:29;97566.25;;;12.98;66.04
21980;BME280;11154;48.558;9.234;2023-04-27T00:57:30;97563.44;;;12.92;66.07
21980;BME280;11154;48.558;9.234;2023-04-27T00:59:33;97562.13;;;12.88;67.16
21980;BME280;11154;48.558;9.234;2023-04-27T01:01:35;97565.63;;;12.89;66.91
21980;BME280;11154;48.558;9.234;2023-04-27T01:03:38;97557.78;;;12.87;66.14
21980;BME280;11154;48.558;9.234;2023-04-27T01:05:41;97562.28;;;12.87;65.30
21980;BME280;11154;48.558;9.234;2023-04-27T01:07:42;97557.09;;;12.85;65.79
21980;BME280;11154;48.558;9.234;2023-04-27T01:09:44;97557.28;;;12.84;65.86
21980;BME280;11154;48.558;9.234;2023-04-27T01:11:46;97557.63;;;12.81;65.29
21980;BME280;11154;48.558;9.234;2023-04-27T01:13:48;97561.47;;;12.78;64.98
21980;BME280;11154;48.558;9.234;2023-04-27T01:15:50;97564.50;;;12.75;65.65
21980;BME280;11154;48.558;9.234;2023-04-27T01:17:56;97566.50;;;12.73;65.52
21980;BME280;11154;48.558;9.234;2023-04-27T01:19:59;97576.16;;;12.74;67.22
21980;BME280;11154;48.558;9.234;2023-04-27T01:22:01;97571.19;;;12.71;66.84
21980;BME280;11154;48.558;9.234;2023-04-27T01:24:06;97572.00;;;12.72;66.99
21980;BME280;11154;48.558;9.234;2023-04-27T01:26:08;97573.00;;;12.71;66.38
21980;BME280;11154;48.558;9.234;2023-04-27T01:28:12;97571.81;;;12.73;66.33
21980;BME280;11154;48.558;9.234;2023-04-27T01:30:14;97569.81;;;12.75;66.20
21980;BME280;11154;48.558;9.234;2023-04-27T01:32:16;97575.16;;;12.75;66.07
21980;BME280;11154;48.558;9.234;2023-04-27T01:34:18;97582.31;;;12.75;66.04
21980;BME280;11154;48.558;9.234;2023-04-27T01:36:20;97574.16;;;12.76;66.18
21980;BME280;11154;48.558;9.234;2023-04-27T01:38:21;97570.66;;;12.76;66.16
21980;BME280;11154;48.558;9.234;2023-04-27T01:40:25;97573.16;;;12.77;67.82
21980;BME280;11154;48.558;9.234;2023-04-27T01:42:26;97572.50;;;12.75;67.09
21980;BME280;11154;48.558;9.234;2023-04-27T01:44:28;97570.50;;;12.77;66.16
21980;BME280;11154;48.558;9.234;2023-04-27T01:46:30;97578.50;;;12.77;65.84
21980;BME280;11154;48.558;9.234;2023-04-27T01:48:31;97569.53;;;12.70;65.06
21980;BME280;11154;48.558;9.234;2023-04-27T01:50:33;97564.88;;;12.64;65.70
21980;BME280;11154;48.558;9.234;2023-04-27T01:52:35;97572.53;;;12.59;66.39
21980;BME280;11154;48.558;9.234;2023-04-27T01:54:37;97570.41;;;12.55;66.50
21980;BME280;11154;48.558;9.234;2023-04-27T01:56:40;97566.72;;;12.56;66.38
21980;BME280;11154;48.558;9.234;2023-04-27T01:58:42;97577.38;;;12.56;66.71
21980;BME280;11154;48.558;9.234;2023-04-27T02:00:43;97581.56;;;12.58;67.12
21980;BME280;11154;48.558;9.234;2023-04-27T02:02:45;97578.06;;;12.58;67.22
21980;BME280;11154;48.558;9.234;2023-04-27T02:04:47;97582.41;;;12.59;67.87
21980;BME280;11154;48.558;9.234;2023-04-27T02:06:48;97581.56;;;12.58;69.43
21980;BME280;11154;48.558;9.234;2023-04-27T02:08:50;97582.41;;;12.59;69.21
21980;BME280;11154;48.558;9.234;2023-04-27T02:10:52;97586.56;;;12.61;69.10
21980;BME280;11154;48.558;9.234;2023-04-27T02:12:55;97580.41;;;12.61;68.66
21980;BME280;11154;48.558;9.234;2023-04-27T02:14:57;97586.72;;;12.60;69.03
21980;BME280;11154;48.558;9.234;2023-04-27T02:16:59;97586.72;;;12.60;68.55
21980;BME280;11154;48.558;9.234;2023-04-27T02:19:00;97593.75;;;12.61;68.86
21980;BME280;11154;48.558;9.234;2023-04-27T02:21:07;97588.56;;;12.59;68.73
21980;BME280;11154;48.558;9.234;2023-04-27T02:23:09;97592.72;;;12.62;69.02
21980;BME280;11154;48.558;9.234;2023-04-27T02:25:11;97587.38;;;12.62;68.32
21980;BME280;11154;48.558;9.234;2023-04-27T02:27:12;97584.88;;;12.60;68.22
21980;BME280;11154;48.558;9.234;2023-04-27T02:29:16;97592.25;;;12.58;68.48
21980;BME280;11154;48.558;9.234;2023-04-27T02:31:17;97595.72;;;12.59;69.00
21980;BME280;11154;48.558;9.234;2023-04-27T02:33:20;97595.56;;;12.60;69.10
21980;BME280;11154;48.558;9.234;2023-04-27T02:35:21;97600.25;;;12.58;69.40
21980;BME280;11154;48.558;9.234;2023-04-27T02:37:23;97592.25;;;12.58;69.25
21980;BME280;11154;48.558;9.234;2023-04-27T02:39:25;97596.25;;;12.54;69.14
21980;BME280;11154;48.558;9.234;2023-04-27T02:41:30;97595.91;;;12.57;69.25
21980;BME280;11154;48.558;9.234;2023-04-27T02:43:32;97591.75;;;12.55;68.99
21980;BME280;11154;48.558;9.234;2023-04-27T02:45:37;97595.41;;;12.54;68.55
21980;BME280;11154;48.558;9.234;2023-04-27T02:47:38;97593.75;;;12.53;68.77
21980;BME280;11154;48.558;9.234;2023-04-27T02:49:40;97598.91;;;12.54;68.40
21980;BME280;11154;48.558;9.234;2023-04-27T02:51:42;97597.28;;;12.45;68.66
21980;BME280;11154;48.558;9.234;2023-04-27T02:53:44;97606.97;;;12.38;68.91
21980;BME280;11154;48.558;9.234;2023-04-27T02:55:46;97598.47;;;12.35;69.61
21980;BME280;11154;48.558;9.234;2023-04-27T02:57:48;97598.47;;;12.35;69.34
21980;BME280;11154;48.558;9.234;2023-04-27T02:59:50;97607.66;;;12.32;69.40
21980;BME280;11154;48.558;9.234;2023-04-27T03:01:53;97607.28;;;12.35;69.80
21980;BME280;11154;48.558;9.234;2023-04-27T03:03:55;97603.63;;;12.36;69.69
21980;BME280;11154;48.558;9.234;2023-04-27T03:05:57;97601.97;;;12.35;69.60
21980;BME280;11154;48.558;9.234;2023-04-27T03:07:58;97599.13;;;12.37;69.82
21980;BME280;11154;48.558;9.234;2023-04-27T03:10:00;97597.13;;;12.39;69.16
21980;BME280;11154;48.558;9.234;2023-04-27T03:12:02;97598.78;;;12.40;69.69
21980;BME280;11154;48.558;9.234;2023-04-27T03:14:04;97600.28;;;12.42;69.27
21980;BME280;11154;48.558;9.234;2023-04-27T03:16:08;97602.94;;;12.42;69.08
21980;BME280;11154;48.558;9.234;2023-04-27T03:18:12;97603.63;;;12.44;69.86
21980;BME280;11154;48.558;9.234;2023-04-27T03:20:13;97603.63;;;12.44;69.43
21980;BME280;11154;48.558;9.234;2023-04-27T03:22:15;97607.97;;;12.45;68.60
21980;BME280;11154;48.558;9.234;2023-04-27T03:24:17;97595.75;;;12.43;68.41
21980;BME280;11154;48.558;9.234;2023-04-27T03:26:18;97598.94;;;12.46;68.31
21980;BME280;11154;48.558;9.234;2023-04-27T03:28:20;97604.25;;;12.46;68.86
21980;BME280;11154;48.558;9.234;2023-04-27T03:30:22;97605.94;;;12.47;69.28
21980;BME280;11154;48.558;9.234;2023-04-27T03:32:24;97607.09;;;12.45;69.40
21980;BME280;11154;48.558;9.234;2023-04-27T03:34:27;97614.44;;;12.43;69.36
21980;BME280;11154;48.558;9.234;2023-04-27T03:36:28;97605.63;;;12.42;69.15
21980;BME280;11154;48.558;9.234;2023-04-27T03:38:32;97612.13;;;12.40;69.09
21980;BME280;11154;48.558;9.234;2023-04-27T03:40:33;97601.28;;;12.33;69.51
21980;BME280;11154;48.558;9.234;2023-04-27T03:42:35;97607.16;;;12.29;70.15
21980;BME280;11154;48.558;9.234;2023-04-27T03:44:37;97607.66;;;12.24;69.59
21980;BME280;11154;48.558;9.234;2023-04-27T03:46:38;97608.66;;;12.23;69.38
21980;BME280;11154;48.558;9.234;2023-04-27T03:48:40;97603.81;;;12.27;69.80
21980;BME280;11154;48.558;9.234;2023-04-27T03:50:44;97600.47;;;12.25;70.81
21980;BME280;11154;48.558;9.234;2023-04-27T03:52:46;97603.00;;;12.26;71.56
21980;BME280;11154;48.558;9.234;2023-04-27T03:54:48;97600.16;;;12.28;72.04
21980;BME280;11154;48.558;9.234;2023-04-27T03:56:50;97615.16;;;12.29;73.43
21980;BME280;11154;48.558;9.234;2023-04-27T03:58:51;97615.97;;;12.29;74.55
21980;BME280;11154;48.558;9.234;2023-04-27T04:00:53;97613.13;;;12.31;74.44
21980;BME280;11154;48.558;9.234;2023-04-27T04:02:56;97618.31;;;12.32;74.91
21980;BME280;11154;48.558;9.234;2023-04-27T04:04:58;97615.66;;;12.32;73.97
21980;BME280;11154;48.558;9.234;2023-04-27T04:07:01;97616.66;;;12.31;73.33
21980;BME280;11154;48.558;9.234;2023-04-27T04:09:03;97618.66;;;12.29;72.04
21980;BME280;11154;48.558;9.234;2023-04-27T04:11:04;97613.00;;;12.32;71.44
21980;BME280;11154;48.558;9.234;2023-04-27T04:13:06;97614.63;;;12.33;70.63
21980;BME280;11154;48.558;9.234;2023-04-27T04:15:08;97614.31;;;12.36;70.59
21980;BME280;11154;48.558;9.234;2023-04-27T04:17:10;97616.78;;;12.38;71.08
21980;BME280;11154;48.558;9.234;2023-04-27T04:19:12;97615.78;;;12.39;71.45
21980;BME280;11154;48.558;9.234;2023-04-27T04:21:13;97616.97;;;12.36;71.03
21980;BME280;11154;48.558;9.234;2023-04-27T04:23:16;97608.66;;;12.31;70.22
21980;BME280;11154;48.558;9.234;2023-04-27T04:25:18;97623.31;;;12.27;70.14
21980;BME280;11154;48.558;9.234;2023-04-27T04:27:20;97623.84;;;12.23;70.64
21980;BME280;11154;48.558;9.234;2023-04-27T04:29:22;97620.31;;;12.15;69.49
21980;BME280;11154;48.558;9.234;2023-04-27T04:31:24;97629.66;;;12.11;69.81
21980;BME280;11154;48.558;9.234;2023-04-27T04:33:26;97631.66;;;12.09;69.48
21980;BME280;11154;48.558;9.234;2023-04-27T04:35:28;97634.69;;;12.06;68.80
21980;BME280;11154;48.558;9.234;2023-04-27T04:37:33;97639.84;;;12.07;68.23
21980;BME280;11154;48.558;9.234;2023-04-27T04:39:37;97632.16;;;12.12;67.29
21980;BME280;11154;48.558;9.234;2023-04-27T04:41:38;97629.16;;;12.15;67.56
21980;BME280;11154;48.558;9.234;2023-04-27T04:43:40;97633.16;;;12.19;67.49
21980;BME280;11154;48.558;9.234;2023-04-27T04:45:42;97624.47;;;12.25;69.25
21980;BME280;11154;48.558;9.234;2023-04-27T04:47:44;97628.00;;;12.25;67.42
21980;BME280;11154;48.558;9.234;2023-04-27T04:49:46;97630.66;;;12.25;68.03
21980;BME280;11154;48.558;9.234;2023-04-27T04:51:48;97635.31;;;12.23;67.67
21980;BME280;11154;48.558;9.234;2023-04-27T04:53:50;97638.31;;;12.21;67.92
21980;BME280;11154;48.558;9.234;2023-04-27T04:55:53;97636.31;;;12.23;66.94
21980;BME280;11154;48.558;9.234;2023-04-27T04:57:54;97637.81;;;12.25;67.01
21980;BME280;11154;48.558;9.234;2023-04-27T04:59:56;97640.66;;;12.23;66.72
21980;BME280;11154;48.558;9.234;2023-04-27T05:01:58;97628.81;;;12.26;67.01
21980;BME280;11154;48.558;9.234;2023-04-27T05:03:59;97636.63;;;12.27;67.34
21980;BME280;11154;48.558;9.234;2023-04-27T05:06:01;97637.97;;;12.31;67.63
21980;BME280;11154;48.558;9.234;2023-04-27T05:08:03;97639.66;;;12.32;67.89
21980;BME280;11154;48.558;9.234;2023-04-27T05:10:06;97637.81;;;12.33;67.93
21980;BME280;11154;48.558;9.234;2023-04-27T05:12:09;97636.13;;;12.32;68.48
21980;BME280;11154;48.558;9.234;2023-04-27T05:14:10;97635.47;;;12.30;69.43
21980;BME280;11154;48.558;9.234;2023-04-27T05:16:12;97631.97;;;12.29;70.15
21980;BME280;11154;48.558;9.234;2023-04-27T05:18:13;97632.97;;;12.28;70.28
21980;BME280;11154;48.558;9.234;2023-04-27T05:20:15;97630.97;;;12.30;69.97
21980;BME280;11154;48.558;9.234;2023-04-27T05:22:17;97629.13;;;12.31;69.71
21980;BME280;11154;48.558;9.234;2023-04-27T05:24:18;97633.28;;;12.33;69.79
21980;BME280;11154;48.558;9.234;2023-04-27T05:26:20;97631.66;;;12.32;71.12
21980;BME280;11154;48.558;9.234;2023-04-27T05:28:23;97636.44;;;12.37;71.28
21980;BME280;11154;48.558;9.234;2023-04-27T05:30:25;97641.63;;;12.38;71.68
21980;BME280;11154;48.558;9.234;2023-04-27T05:32:27;97647.28;;;12.43;71.81
21980;BME280;11154;48.558;9.234;2023-04-27T05:34:29;97641.97;;;12.43;71.87
21980;BME280;11154;48.558;9.234;2023-04-27T05:36:30;97635.78;;;12.43;70.67
21980;BME280;11154;48.558;9.234;2023-04-27T05:38:32;97645.97;;;12.39;70.29
21980;BME280;11154;48.558;9.234;2023-04-27T05:40:35;97644.31;;;12.38;69.87
21980;BME280;11154;48.558;9.234;2023-04-27T05:42:37;97643.13;;;12.41;69.28
21980;BME280;11154;48.558;9.234;2023-04-27T05:44:40;97639.28;;;12.43;68.70
21980;BME280;11154;48.558;9.234;2023-04-27T05:46:42;97649.94;;;12.43;68.65
21980;BME280;11154;48.558;9.234;2023-04-27T05:48:44;97645.28;;;12.45;69.73
21980;BME280;11154;48.558;9.234;2023-04-27T05:50:45;97646.94;;;12.46;70.41
21980;BME280;11154;48.558;9.234;2023-04-27T05:52:47;97647.59;;;12.48;69.10
21980;BME280;11154;48.558;9.234;2023-04-27T05:54:49;97652.63;;;12.51;68.78
21980;BME280;11154;48.558;9.234;2023-04-27T05:56:51;97646.75;;;12.56;69.79
21980;BME280;11154;48.558;9.234;2023-04-27T05:58:52;97644.94;;;12.56;68.84
21980;BME280;11154;48.558;9.234;2023-04-27T06:00:55;97648.59;;;12.55;70.91
21980;BME280;11154;48.558;9.234;2023-04-27T06:02:57;97654.94;;;12.54;71.05
21980;BME280;11154;48.558;9.234;2023-04-27T06:04:59;97659.94;;;12.57;72.02
21980;BME280;11154;48.558;9.234;2023-04-27T06:07:00;97658.44;;;12.55;71.37
21980;BME280;11154;48.558;9.234;2023-04-27T06:09:03;97655.25;;;12.59;71.77
21980;BME280;11154;48.558;9.234;2023-04-27T06:11:05;97669.25;;;12.61;71.67
21980;BME280;11154;48.558;9.234;2023-04-27T06:13:07;97672.41;;;12.65;72.18
21980;BME280;11154;48.558;9.234;2023-04-27T06:15:09;97665.22;;;12.65;71.77
21980;BME280;11154;48.558;9.234;2023-04-27T06:17:12;97666.91;;;12.66;72.65
21980;BME280;11154;48.558;9.234;2023-04-27T06:19:14;97672.22;;;12.66;70.70
21980;BME280;11154;48.558;9.234;2023-04-27T06:21:16;97672.72;;;12.70;70.48
21980;BME280;11154;48.558;9.234;2023-04-27T06:23:17;97675.56;;;12.68;68.53
21980;BME280;11154;48.558;9.234;2023-04-27T06:25:20;97683.25;;;12.71;68.28
21980;BME280;11154;48.558;9.234;2023-04-27T06:27:22;97682.56;;;12.77;69.60
21980;BME280;11154;48.558;9.234;2023-04-27T06:29:24;97684.53;;;12.83;69.70
21980;BME280;11154;48.558;9.234;2023-04-27T06:31:26;97679.00;;;13.00;70.35
21980;BME280;11154;48.558;9.234;2023-04-27T06:33:29;97685.69;;;12.97;70.96
21980;BME280;11154;48.558;9.234;2023-04-27T06:35:30;97684.69;;;12.98;69.41
21980;BME280;11154;48.558;9.234;2023-04-27T06:37:32;97683.69;;;12.98;69.13
21980;BME280;11154;48.558;9.234;2023-04-27T06:39:34;97690.00;;;13.05;72.58
21980;BME280;11154;48.558;9.234;2023-04-27T06:41:36;97688.78;;;13.16;71.57
21980;BME280;11154;48.558;9.234;2023-04-27T06:43:37;97687.63;;;13.18;69.86
21980;BME280;11154;48.558;9.234;2023-04-27T06:45:39;97690.59;;;13.23;69.00
21980;BME280;11154;48.558;9.234;2023-04-27T06:47:41;97689.06;;;13.29;67.50
21980;BME280;11154;48.558;9.234;2023-04-27T06:49:45;97692.06;;;13.34;67.62
21980;BME280;11154;48.558;9.234;2023-04-27T06:51:47;97693.72;;;13.35;65.37
21980;BME280;11154;48.558;9.234;2023-04-27T06:53:49;97702.19;;;13.38;64.33
21980;BME280;11154;48.558;9.234;2023-04-27T06:55:51;97694.31;;;13.45;66.38
21980;BME280;11154;48.558;9.234;2023-04-27T06:57:52;97689.94;;;13.52;67.78
21980;BME280;11154;48.558;9.234;2023-04-27T06:59:54;97687.94;;;13.54;66.59
21980;BME280;11154;48.558;9.234;2023-04-27T07:01:56;97687.59;;;13.57;66.59
21980;BME280;11154;48.558;9.234;2023-04-27T07:03:58;97686.75;;;13.56;65.57
21980;BME280;11154;48.558;9.234;2023-04-27T07:06:02;97692.22;;;13.63;69.17
21980;BME280;11154;48.558;9.234;2023-04-27T07:08:04;97683.19;;;13.64;68.31
21980;BME280;11154;48.558;9.234;2023-04-27T07:10:07;97689.72;;;13.61;66.19
21980;BME280;11154;48.558;9.234;2023-04-27T07:12:09;97693.06;;;13.63;66.54
21980;BME280;11154;48.558;9.234;2023-04-27T07:14:11;97685.84;;;13.71;68.14
21980;BME280;11154;48.558;9.234;2023-04-27T07:16:14;97692.13;;;13.78;68.87
21980;BME280;11154;48.558;9.234;2023-04-27T07:18:16;97688.09;;;13.82;69.04
21980;BME280;11154;48.558;9.234;2023-04-27T07:20:17;97682.41;;;13.85;70.01
21980;BME280;11154;48.558;9.234;2023-04-27T07:22:20;97686.38;;;13.89;68.82
21980;BME280;11154;48.558;9.234;2023-04-27T07:24:22;97684.00;;;13.94;66.61
21980;BME280;11154;48.558;9.234;2023-04-27T07:26:24;97690.28;;;14.01;65.85
21980;BME280;11154;48.558;9.234;2023-04-27T07:28:27;97689.91;;;14.12;69.73
21980;BME280;11154;48.558;9.234;2023-04-27T07:30:28;97690.38;;;14.16;68.54
21980;BME280;11154;48.558;9.234;2023-04-27T07:32:30;97684.16;;;14.23;68.06
21980;BME280;11154;48.558;9.234;2023-04-27T07:34:32;97682.75;;;14.27;67.46
21980;BME280;11154;48.558;9.234;2023-04-27T07:36:34;97682.41;;;14.30;66.23
21980;BME280;11154;48.558;9.234;2023-04-27T07:38:37;97679.66;;;14.38;65.61
21980;BME280;11154;48.558;9.234;2023-04-27T07:40:39;97675.97;;;14.39;63.14
21980;BME280;11154;48.558;9.234;2023-04-27T07:42:40;97675.78;;;14.41;62.23
21980;BME280;11154;48.558;9.234;2023-04-27T07:44:42;97676.44;;;14.43;62.35
21980;BME280;11154;48.558;9.234;2023-04-27T07:46:44;97685.22;;;14.51;62.93
21980;BME280;11154;48.558;9.234;2023-04-27T07:48:46;97673.50;;;14.66;67.32
21980;BME280;11154;48.558;9.234;2023-04-27T07:50:49;97681.53;;;14.66;62.22
21980;BME280;11154;48.558;9.234;2023-04-27T07:52:51;97672.91;;;14.79;61.09
21980;BME280;11154;48.558;9.234;2023-04-27T07:54:54;97679.81;;;14.88;63.06
21980;BME280;11154;48.558;9.234;2023-04-27T07:56:56;97682.47;;;14.88;60.43
21980;BME280;11154;48.558;9.234;2023-04-27T07:58:58;97682.88;;;14.85;57.15
21980;BME280;11154;48.558;9.234;2023-04-27T08:01:00;97680.66;;;14.88;56.31
21980;BME280;11154;48.558;9.234;2023-04-27T08:03:02;97675.50;;;14.87;55.82
21980;BME280;11154;48.558;9.234;2023-04-27T08:05:04;97678.31;;;14.85;55.41
21980;BME280;11154;48.558;9.234;2023-04-27T08:07:05;97678.31;;;14.85;55.03
21980;BME280;11154;48.558;9.234;2023-04-27T08:09:07;97674.44;;;14.88;53.95
21980;BME280;11154;48.558;9.234;2023-04-27T08:11:11;97676.41;;;14.94;53.37
21980;BME280;11154;48.558;9.234;2023-04-27T08:13:13;97670.47;;;14.98;53.13
21980;BME280;11154;48.558;9.234;2023-04-27T08:15:14;97676.88;;;15.12;53.03
21980;BME280;11154;48.558;9.234;2023-04-27T08:17:16;97669.03;;;15.24;54.19
21980;BME280;11154;48.558;9.234;2023-04-27T08:19:18;97672.81;;;15.30;54.33
21980;BME280;11154;48.558;9.234;2023-04-27T08:21:20;97671.75;;;15.45;57.58
21980;BME280;11154;48.558;9.234;2023-04-27T08:23:25;97672.50;;;15.54;54.85
21980;BME280;11154;48.558;9.234;2023-04-27T08:25:28;97665.75;;;15.58;51.28
21980;BME280;11154;48.558;9.234;2023-04-27T08:27:31;97668.13;;;15.67;55.42
21980;BME280;11154;48.558;9.234;2023-04-27T08:29:34;97670.03;;;15.73;53.50
21980;BME280;11154;48.558;9.234;2023-04-27T08:31:36;97657.47;;;15.94;60.38
21980;BME280;11154;48.558;9.234;2023-04-27T08:33:37;97658.16;;;16.03;53.51
21980;BME280;11154;48.558;9.234;2023-04-27T08:35:39;97663.53;;;16.03;53.35
21980;BME280;11154;48.558;9.234;2023-04-27T08:37:41;97654.72;;;16.09;56.34
21980;BME280;11154;48.558;9.234;2023-04-27T08:39:43;97659.31;;;16.15;55.77
21980;BME280;11154;48.558;9.234;2023-04-27T08:41:45;97647.31;;;16.11;50.75
21980;BME280;11154;48.558;9.234;2023-04-27T08:43:49;97655.94;;;16.06;49.98
21980;BME280;11154;48.558;9.234;2023-04-27T08:45:52;97651.78;;;16.04;48.26
21980;BME280;11154;48.558;9.234;2023-04-27T08:47:55;97649.78;;;16.12;54.33
21980;BME280;11154;48.558;9.234;2023-04-27T08:49:57;97652.34;;;16.20;54.42
21980;BME280;11154;48.558;9.234;2023-04-27T08:51:59;97647.06;;;16.27;51.95
21980;BME280;11154;48.558;9.234;2023-04-27T08:54:01;97647.56;;;16.16;49.52
21980;BME280;11154;48.558;9.234;2023-04-27T08:56:03;97648.84;;;16.20;52.31
21980;BME280;11154;48.558;9.234;2023-04-27T08:58:05;97651.41;;;16.28;51.29
21980;BME280;11154;48.558;9.234;2023-04-27T09:00:09;97642.84;;;16.18;47.72
21980;BME280;11154;48.558;9.234;2023-04-27T09:02:19;97640.50;;;16.29;50.08
21980;BME280;11154;48.558;9.234;2023-04-27T09:04:20;97642.72;;;16.26;47.42
21980;BME280;11154;48.558;9.234;2023-04-27T09:06:28;97640.34;;;16.37;51.67
21980;BME280;11154;48.558;9.234;2023-04-27T09:08:40;97633.25;;;16.51;49.98
21980;BME280;11154;48.558;9.234;2023-04-27T09:10:43;97634.91;;;16.52;47.69
21980;BME280;11154;48.558;9.234;2023-04-27T09:12:53;97632.06;;;16.60;48.60
21980;BME280;11154;48.558;9.234;2023-04-27T09:14:55;97632.78;;;16.74;52.33
21980;BME280;11154;48.558;9.234;2023-04-27T09:16:59;97627.47;;;16.81;49.30
21980;BME280;11154;48.558;9.234;2023-04-27T09:19:00;97633.88;;;16.86;48.09
21980;BME280;11154;48.558;9.234;2023-04-27T09:21:02;97639.69;;;16.90;46.39
21980;BME280;11154;48.558;9.234;2023-04-27T09:23:06;97636.38;;;16.88;42.93
21980;BME280;11154;48.558;9.234;2023-04-27T09:25:08;97632.22;;;16.85;43.57
21980;BME280;11154;48.558;9.234;2023-04-27T09:27:18;97644.06;;;16.97;46.99
21980;BME280;11154;48.558;9.234;2023-04-27T09:29:31;97649.28;;;17.05;43.68
21980;BME280;11154;48.558;9.234;2023-04-27T09:31:33;97644.41;;;17.15;46.51
21980;BME280;11154;48.558;9.234;2023-04-27T09:33:36;97642.31;;;17.17;46.18
21980;BME280;11154;48.558;9.234;2023-04-27T09:35:40;97643.59;;;17.21;47.34
21980;BME280;11154;48.558;9.234;2023-04-27T09:37:43;97643.59;;;17.21;44.14
21980;BME280;11154;48.558;9.234;2023-04-27T09:39:45;97639.47;;;17.25;44.51
21980;BME280;11154;48.558;9.234;2023-04-27T09:41:47;97639.47;;;17.25;42.75
21980;BME280;11154;48.558;9.234;2023-04-27T09:43:50;97630.34;;;17.20;42.75
21980;BME280;11154;48.558;9.234;2023-04-27T09:45:53;97633.47;;;17.23;44.10
21980;BME280;11154;48.558;9.234;2023-04-27T09:47:56;97638.06;;;17.29;44.51
21980;BME280;11154;48.558;9.234;2023-04-27T09:50:00;97632.69;;;17.29;43.57
21980;BME280;11154;48.558;9.234;2023-04-27T09:52:03;97637.38;;;17.21;42.11
21980;BME280;11154;48.558;9.234;2023-04-27T09:54:06;97632.41;;;17.18;42.91
21980;BME280;11154;48.558;9.234;2023-04-27T09:56:19;97630.56;;;17.18;42.63
21980;BME280;11154;48.558;9.234;2023-04-27T09:58:51;97625.91;;;17.33;47.88
21980;BME280;11154;48.558;9.234;2023-04-27T10:01:04;97629.25;;;17.41;45.90
21980;BME280;11154;48.558;9.234;2023-04-27T10:03:15;97626.34;;;17.43;48.03
21980;BME280;11154;48.558;9.234;2023-04-27T10:05:33;97627.78;;;17.39;46.93
21980;BME280;11154;48.558;9.234;2023-04-27T10:07:38;97633.16;;;17.39;47.11
21980;BME280;11154;48.558;9.234;2023-04-27T10:09:43;97626.56;;;17.41;47.52
21980;BME280;11154;48.558;9.234;2023-04-27T10:11:45;97620.59;;;17.46;47.02
21980;BME280;11154;48.558;9.234;2023-04-27T10:13:50;97622.19;;;17.40;42.77
21980;BME280;11154;48.558;9.234;2023-04-27T10:15:53;97627.56;;;17.34;42.31
21980;BME280;11154;48.558;9.234;2023-04-27T10:17:54;97631.28;;;17.39;43.49
21980;BME280;11154;48.558;9.234;2023-04-27T10:19:59;97619.78;;;17.52;42.95
21980;BME280;11154;48.558;9.234;2023-04-27T10:22:03;97622.69;;;17.57;42.85
21980;BME280;11154;48.558;9.234;2023-04-27T10:24:07;97618.75;;;17.53;41.70
21980;BME280;11154;48.558;9.234;2023-04-27T10:26:10;97634.25;;;17.51;41.83
21980;BME280;11154;48.558;9.234;2023-04-27T10:28:15;97626.00;;;17.65;43.37
21980;BME280;11154;48.558;9.234;2023-04-27T10:30:18;97625.41;;;17.70;42.30
21980;BME280;11154;48.558;9.234;2023-04-27T10:32:22;97627.69;;;17.73;41.87
21980;BME280;11154;48.558;9.234;2023-04-27T10:34:26;97624.19;;;17.79;41.65
21980;BME280;11154;48.558;9.234;2023-04-27T10:36:33;97621.09;;;17.82;42.67
21980;BME280;11154;48.558;9.234;2023-04-27T10:38:39;97623.59;;;17.90;44.88
21980;BME280;11154;48.558;9.234;2023-04-27T10:40:43;97615.75;;;18.01;49.99
21980;BME280;11154;48.558;9.234;2023-04-27T10:42:45;97615.53;;;18.03;46.33
21980;BME280;11154;48.558;9.234;2023-04-27T10:44:53;97616.38;;;18.09;50.35
21980;BME280;11154;48.558;9.234;2023-04-27T10:46:59;97609.75;;;18.12;50.06
21980;BME280;11154;48.558;9.234;2023-04-27T10:49:04;97606.44;;;18.10;47.40